Time;durP1;ratioP1;P1;durP2;ratioP2;P2;SDS_P1;SDS_P2;PMS_P1;PMS_P2;Temp;Humidity;BMP_temperature;BMP_pressure;BME280_temperature;BME280_humidity;BME280_pressure;Samples;Min_cycle;Max_cycle;Signal;HPM_P1;HPM_P2
2021/09/19 00:01:47;;;;;;;10.93;8.38;;;;;;;;;;5070571;28;20078;-74
2021/09/19 00:04:13;;;;;;;10.23;7.68;;;;;;;;;;5070865;28;20044;-75
2021/09/19 00:06:40;;;;;;;10.63;7.47;;;;;;;;;;5071816;28;20048;-74
2021/09/19 00:09:06;;;;;;;7.82;7.13;;;;;;;;;;5084328;28;20058;-74
2021/09/19 00:11:32;;;;;;;9.48;7.30;;;;;;;;;;5086113;28;20108;-75
2021/09/19 00:13:58;;;;;;;7.82;6.95;;;;;;;;;;5075018;28;20044;-75
2021/09/19 00:16:24;;;;;;;7.70;6.90;;;;;;;;;;5075648;28;20098;-74
2021/09/19 00:18:50;;;;;;;7.80;6.65;;;;;;;;;;5073649;28;20044;-74
2021/09/19 00:21:16;;;;;;;10.55;6.70;;;;;;;;;;5075241;28;20050;-74
2021/09/19 00:23:42;;;;;;;7.63;6.63;;;;;;;;;;5095962;28;20097;-74
2021/09/19 00:26:08;;;;;;;8.07;5.80;;;;;;;;;;5074696;28;20131;-74
2021/09/19 00:28:34;;;;;;;8.00;6.35;;;;;;;;;;5108145;27;20052;-74
2021/09/19 00:31:01;;;;;;;7.38;5.22;;;;;;;;;;5073867;28;20059;-74
2021/09/19 00:33:27;;;;;;;6.85;5.75;;;;;;;;;;5091375;28;20040;-75
2021/09/19 00:35:53;;;;;;;5.90;5.30;;;;;;;;;;5073938;28;20040;-75
2021/09/19 00:38:19;;;;;;;5.30;4.80;;;;;;;;;;5075283;28;20055;-74
2021/09/19 00:40:45;;;;;;;8.65;4.68;;;;;;;;;;5093156;28;20048;-75
2021/09/19 00:43:11;;;;;;;5.72;4.70;;;;;;;;;;5073553;28;20074;-74
2021/09/19 00:45:37;;;;;;;6.05;4.68;;;;;;;;;;5108308;27;20049;-74
2021/09/19 00:48:03;;;;;;;6.03;3.97;;;;;;;;;;5107345;27;20384;-75
2021/09/19 00:50:29;;;;;;;5.07;3.72;;;;;;;;;;5074219;28;20127;-74
2021/09/19 00:52:55;;;;;;;4.97;4.20;;;;;;;;;;5072902;28;20036;-75
2021/09/19 00:55:21;;;;;;;5.97;3.78;;;;;;;;;;5073629;28;20391;-74
2021/09/19 00:57:49;;;;;;;4.15;3.75;;;;;;;;;;5072968;28;20051;-75
2021/09/19 01:00:29;;;;;;;4.50;3.50;;;;;;;;;;5074033;28;20090;-74
2021/09/19 01:02:56;;;;;;;4.57;3.30;;;;;;;;;;5073263;28;20044;-75
2021/09/19 01:05:22;;;;;;;4.70;3.50;;;;;;;;;;5074162;28;20040;-74
2021/09/19 01:07:49;;;;;;;4.15;3.50;;;;;;;;;;5072881;28;20064;-74
2021/09/19 01:10:16;;;;;;;7.22;3.72;;;;;;;;;;5073763;28;20053;-74
2021/09/19 01:12:43;;;;;;;4.68;3.30;;;;;;;;;;5073739;28;20040;-74
2021/09/19 01:15:11;;;;;;;5.32;3.80;;;;;;;;;;5096713;28;20039;-74
2021/09/19 01:17:39;;;;;;;5.43;3.55;;;;;;;;;;5073261;28;20072;-74
2021/09/19 01:20:09;;;;;;;4.95;3.80;;;;;;;;;;5073403;28;20091;-74
2021/09/19 01:22:38;;;;;;;4.55;3.97;;;;;;;;;;5057276;28;20048;-75
2021/09/19 01:25:06;;;;;;;5.88;4.07;;;;;;;;;;5089179;28;20087;-74
2021/09/19 01:27:32;;;;;;;4.68;4.18;;;;;;;;;;5073365;28;20400;-74
2021/09/19 01:29:58;;;;;;;5.85;4.70;;;;;;;;;;5087599;28;20087;-74
2021/09/19 01:32:24;;;;;;;5.68;4.60;;;;;;;;;;5107090;27;20434;-74
2021/09/19 01:34:50;;;;;;;5.88;4.28;;;;;;;;;;5089225;28;20438;-75
2021/09/19 01:37:17;;;;;;;7.10;4.57;;;;;;;;;;5073389;28;20087;-75
2021/09/19 01:39:43;;;;;;;5.22;4.10;;;;;;;;;;5089558;28;20063;-74
2021/09/19 01:42:10;;;;;;;5.90;4.60;;;;;;;;;;5071787;28;20048;-74
2021/09/19 01:44:36;;;;;;;5.93;4.43;;;;;;;;;;5072822;28;20431;-74
2021/09/19 01:47:02;;;;;;;5.13;4.30;;;;;;;;;;5072741;28;20128;-74
2021/09/19 01:49:28;;;;;;;5.45;4.63;;;;;;;;;;5073089;28;20063;-74
2021/09/19 01:51:54;;;;;;;4.72;4.25;;;;;;;;;;5071972;28;20051;-74
2021/09/19 01:54:20;;;;;;;6.53;4.50;;;;;;;;;;5072680;28;20506;-75
2021/09/19 01:56:46;;;;;;;5.88;5.05;;;;;;;;;;5073185;28;20480;-75
2021/09/19 01:59:12;;;;;;;6.35;5.20;;;;;;;;;;5106925;27;20040;-75
2021/09/19 02:01:38;;;;;;;8.27;4.85;;;;;;;;;;5072913;28;20135;-75
2021/09/19 02:04:04;;;;;;;8.77;4.93;;;;;;;;;;5072040;28;20094;-75
2021/09/19 02:06:31;;;;;;;7.80;5.88;;;;;;;;;;5073668;28;20051;-74
2021/09/19 02:08:57;;;;;;;8.13;6.40;;;;;;;;;;5088761;28;20090;-75
2021/09/19 02:11:23;;;;;;;6.65;5.88;;;;;;;;;;5072714;28;20094;-74
2021/09/19 02:13:49;;;;;;;6.85;6.07;;;;;;;;;;5088363;28;20094;-74
2021/09/19 02:16:20;;;;;;;7.70;6.63;;;;;;;;;;5108779;28;20048;-75
2021/09/19 02:18:46;;;;;;;9.70;7.22;;;;;;;;;;5054998;28;20175;-74
2021/09/19 02:21:12;;;;;;;9.90;7.70;;;;;;;;;;5072032;28;20060;-74
2021/09/19 02:23:39;;;;;;;10.45;7.57;;;;;;;;;;5071779;28;20052;-74
2021/09/19 02:26:06;;;;;;;8.73;7.93;;;;;;;;;;5105283;27;20055;-74
2021/09/19 02:28:33;;;;;;;8.27;7.47;;;;;;;;;;5072449;28;20476;-74
2021/09/19 02:30:59;;;;;;;11.95;8.57;;;;;;;;;;5071201;28;20501;-74
2021/09/19 02:33:25;;;;;;;10.77;9.07;;;;;;;;;;5073402;28;20054;-75
2021/09/19 02:35:51;;;;;;;10.07;9.02;;;;;;;;;;5088337;28;20060;-75
2021/09/19 02:38:17;;;;;;;13.32;9.20;;;;;;;;;;5071348;28;20111;-74
2021/09/19 02:40:44;;;;;;;9.95;8.95;;;;;;;;;;5072320;28;20059;-74
2021/09/19 02:43:10;;;;;;;10.23;9.13;;;;;;;;;;5071800;28;20097;-74
2021/09/19 02:45:36;;;;;;;10.23;9.20;;;;;;;;;;5105762;27;20131;-74
2021/09/19 02:48:03;;;;;;;9.52;8.55;;;;;;;;;;5071620;28;20062;-74
2021/09/19 02:50:29;;;;;;;11.85;9.75;;;;;;;;;;5071335;28;20463;-74
2021/09/19 02:52:55;;;;;;;10.50;9.40;;;;;;;;;;5071212;28;20044;-75
2021/09/19 02:55:21;;;;;;;12.63;9.10;;;;;;;;;;5113937;27;20044;-74
2021/09/19 02:57:48;;;;;;;9.43;8.50;;;;;;;;;;5071522;28;20076;-75
2021/09/19 03:00:15;;;;;;;11.43;9.38;;;;;;;;;;5070726;28;20055;-75
2021/09/19 03:02:42;;;;;;;10.07;8.98;;;;;;;;;;5105582;28;20055;-74
2021/09/19 03:05:09;;;;;;;12.70;9.27;;;;;;;;;;5071353;28;20526;-74
2021/09/19 03:07:35;;;;;;;11.57;9.68;;;;;;;;;;5072725;28;20052;-75
2021/09/19 03:10:01;;;;;;;12.65;9.27;;;;;;;;;;5070991;28;20484;-74
2021/09/19 03:12:27;;;;;;;12.00;9.50;;;;;;;;;;5087680;28;20457;-74
2021/09/19 03:14:53;;;;;;;9.30;8.40;;;;;;;;;;5076097;28;20113;-74
2021/09/19 03:17:19;;;;;;;9.35;8.43;;;;;;;;;;5076835;28;20119;-74
2021/09/19 03:19:45;;;;;;;8.85;7.80;;;;;;;;;;5104464;28;20048;-74
2021/09/19 03:22:11;;;;;;;12.73;8.50;;;;;;;;;;5070763;28;20037;-74
2021/09/19 03:24:38;;;;;;;10.00;7.65;;;;;;;;;;5071119;28;20119;-74
2021/09/19 03:27:04;;;;;;;8.75;7.22;;;;;;;;;;5086606;28;20171;-75
2021/09/19 03:29:31;;;;;;;9.50;7.22;;;;;;;;;;5083702;28;20052;-74
2021/09/19 03:31:57;;;;;;;9.85;7.40;;;;;;;;;;5103985;28;20051;-74
2021/09/19 03:34:23;;;;;;;8.68;6.60;;;;;;;;;;5071888;28;20051;-74
2021/09/19 03:36:50;;;;;;;8.95;5.85;;;;;;;;;;5071030;28;20044;-74
2021/09/19 03:39:16;;;;;;;8.65;6.00;;;;;;;;;;5086837;28;20059;-74
2021/09/19 03:41:42;;;;;;;7.85;5.25;;;;;;;;;;5071116;28;20063;-74
2021/09/19 03:44:10;;;;;;;6.75;5.07;;;;;;;;;;5070758;28;20059;-74
2021/09/19 03:46:36;;;;;;;12.57;5.78;;;;;;;;;;5104477;28;20040;-74
2021/09/19 03:49:02;;;;;;;9.30;5.10;;;;;;;;;;5070089;28;20048;-74
2021/09/19 03:51:28;;;;;;;7.63;4.40;;;;;;;;;;5070484;28;20487;-74
2021/09/19 03:53:54;;;;;;;7.82;4.95;;;;;;;;;;5104755;28;20049;-74
2021/09/19 03:56:20;;;;;;;5.55;4.40;;;;;;;;;;5053052;28;20052;-74
2021/09/19 03:58:46;;;;;;;9.73;4.18;;;;;;;;;;5071061;28;20131;-74
2021/09/19 04:01:12;;;;;;;9.50;4.40;;;;;;;;;;5070162;28;20483;-74
2021/09/19 04:03:38;;;;;;;6.97;4.50;;;;;;;;;;5070473;28;20461;-74
2021/09/19 04:06:05;;;;;;;6.78;4.70;;;;;;;;;;5060320;28;20388;-74
2021/09/19 04:08:31;;;;;;;6.53;4.32;;;;;;;;;;5118064;28;20132;-74
2021/09/19 04:10:57;;;;;;;7.93;4.55;;;;;;;;;;5087318;28;20049;-74
2021/09/19 04:13:23;;;;;;;7.65;4.68;;;;;;;;;;5070315;28;20044;-74
2021/09/19 04:15:49;;;;;;;8.68;4.93;;;;;;;;;;5078542;28;20056;-73
2021/09/19 04:18:16;;;;;;;8.65;4.80;;;;;;;;;;5070301;28;20154;-74
2021/09/19 04:20:43;;;;;;;8.68;4.80;;;;;;;;;;5087511;28;20119;-74
2021/09/19 04:23:09;;;;;;;6.22;4.30;;;;;;;;;;5070201;28;20049;-73
2021/09/19 04:25:35;;;;;;;7.97;4.40;;;;;;;;;;5069949;28;20235;-74
2021/09/19 04:28:02;;;;;;;6.45;4.88;;;;;;;;;;5077842;28;20048;-75
2021/09/19 04:30:28;;;;;;;10.40;4.78;;;;;;;;;;5104616;28;20052;-74
2021/09/19 04:32:54;;;;;;;8.18;5.20;;;;;;;;;;5070599;28;20048;-74
2021/09/19 04:35:20;;;;;;;7.60;4.90;;;;;;;;;;5052942;28;20059;-74
2021/09/19 04:37:46;;;;;;;7.05;5.18;;;;;;;;;;5069939;28;20048;-74
2021/09/19 04:40:12;;;;;;;9.45;5.22;;;;;;;;;;5068570;28;20178;-74
2021/09/19 04:42:38;;;;;;;8.55;5.18;;;;;;;;;;5069846;28;20048;-74
2021/09/19 04:45:05;;;;;;;10.05;5.85;;;;;;;;;;5069667;28;20471;-75
2021/09/19 04:47:31;;;;;;;9.88;5.25;;;;;;;;;;5070527;28;20051;-74
2021/09/19 04:49:57;;;;;;;10.45;5.35;;;;;;;;;;5069995;28;20037;-74
2021/09/19 04:52:23;;;;;;;10.05;5.00;;;;;;;;;;5087369;28;20072;-74
2021/09/19 04:54:49;;;;;;;7.80;4.95;;;;;;;;;;5071181;28;20037;-74
2021/09/19 04:57:15;;;;;;;7.47;4.93;;;;;;;;;;5069743;28;20049;-75
2021/09/19 04:59:41;;;;;;;7.95;4.90;;;;;;;;;;5070798;28;20484;-74
2021/09/19 05:02:07;;;;;;;9.90;5.55;;;;;;;;;;5073469;28;20488;-74
2021/09/19 05:04:33;;;;;;;8.68;4.72;;;;;;;;;;5073853;28;20056;-73
2021/09/19 05:07:00;;;;;;;6.07;4.63;;;;;;;;;;5073721;28;20048;-74
2021/09/19 05:09:26;;;;;;;10.98;4.95;;;;;;;;;;5072437;28;20048;-74
2021/09/19 05:11:52;;;;;;;40.22;5.88;;;;;;;;;;5075034;28;20049;-74
2021/09/19 05:14:18;;;;;;;9.52;5.03;;;;;;;;;;5073261;28;20052;-74
2021/09/19 05:16:44;;;;;;;6.68;5.07;;;;;;;;;;5072575;28;20040;-74
2021/09/19 05:19:10;;;;;;;8.77;5.10;;;;;;;;;;5072018;28;20053;-73
2021/09/19 05:21:36;;;;;;;9.85;5.40;;;;;;;;;;5072995;28;20040;-74
2021/09/19 05:24:03;;;;;;;7.30;5.05;;;;;;;;;;5090799;28;20037;-73
2021/09/19 05:26:29;;;;;;;8.57;5.30;;;;;;;;;;5106794;27;20492;-74
2021/09/19 05:28:55;;;;;;;9.75;5.57;;;;;;;;;;5107182;27;20048;-74
2021/09/19 05:31:21;;;;;;;9.60;4.63;;;;;;;;;;5056400;28;20052;-74
2021/09/19 05:33:47;;;;;;;7.50;5.15;;;;;;;;;;5056523;28;20040;-74
2021/09/19 05:36:14;;;;;;;8.25;4.43;;;;;;;;;;5072740;28;20052;-74
2021/09/19 05:38:40;;;;;;;7.47;5.03;;;;;;;;;;5072511;28;20131;-74
2021/09/19 05:41:06;;;;;;;7.93;5.25;;;;;;;;;;5072641;28;20048;-74
2021/09/19 05:43:32;;;;;;;8.75;5.40;;;;;;;;;;5091680;28;20059;-74
2021/09/19 05:45:58;;;;;;;8.40;4.85;;;;;;;;;;5072448;28;20055;-74
2021/09/19 05:48:24;;;;;;;8.52;5.07;;;;;;;;;;5072616;28;20075;-75
2021/09/19 05:50:50;;;;;;;6.95;5.18;;;;;;;;;;5056278;28;20399;-74
2021/09/19 05:53:16;;;;;;;6.50;4.70;;;;;;;;;;5089229;28;20110;-74
2021/09/19 05:55:42;;;;;;;9.00;4.97;;;;;;;;;;5072514;28;20045;-75
2021/09/19 05:58:08;;;;;;;7.55;4.50;;;;;;;;;;5076971;28;20113;-74
2021/09/19 06:00:34;;;;;;;7.75;5.18;;;;;;;;;;5121436;27;20048;-74
2021/09/19 06:03:01;;;;;;;9.02;4.80;;;;;;;;;;5073435;28;20483;-74
2021/09/19 06:05:27;;;;;;;8.30;5.10;;;;;;;;;;5077147;28;20144;-75
2021/09/19 06:07:53;;;;;;;9.13;4.90;;;;;;;;;;5055577;28;20656;-75
2021/09/19 06:10:19;;;;;;;7.13;4.68;;;;;;;;;;5071303;28;20406;-74
2021/09/19 06:12:45;;;;;;;7.63;5.30;;;;;;;;;;5063094;28;20430;-74
2021/09/19 06:15:11;;;;;;;7.88;4.63;;;;;;;;;;5079511;28;20071;-74
2021/09/19 06:17:37;;;;;;;7.22;5.22;;;;;;;;;;5079337;28;20056;-75
2021/09/19 06:20:04;;;;;;;10.38;5.22;;;;;;;;;;5073262;28;20048;-74
2021/09/19 06:22:30;;;;;;;9.80;5.15;;;;;;;;;;5071888;28;20102;-74
2021/09/19 06:24:56;;;;;;;7.53;4.95;;;;;;;;;;5073465;28;20048;-74
2021/09/19 06:27:22;;;;;;;9.65;5.00;;;;;;;;;;5071049;28;20052;-75
2021/09/19 06:29:49;;;;;;;10.13;5.22;;;;;;;;;;5115471;27;20075;-74
2021/09/19 06:32:15;;;;;;;7.38;5.53;;;;;;;;;;5071608;28;20106;-75
2021/09/19 06:34:42;;;;;;;10.50;5.30;;;;;;;;;;5072298;28;20124;-75
2021/09/19 06:37:08;;;;;;;9.95;5.72;;;;;;;;;;5072014;28;20048;-75
2021/09/19 06:39:34;;;;;;;8.13;4.90;;;;;;;;;;5071797;28;20051;-75
2021/09/19 06:42:00;;;;;;;11.38;6.20;;;;;;;;;;5089061;28;20433;-73
2021/09/19 06:44:26;;;;;;;7.97;5.25;;;;;;;;;;5107562;27;20142;-75
2021/09/19 06:46:53;;;;;;;8.35;5.55;;;;;;;;;;5071855;28;20052;-75
2021/09/19 06:49:20;;;;;;;12.15;5.45;;;;;;;;;;5088188;28;20063;-75
2021/09/19 06:51:47;;;;;;;9.52;5.55;;;;;;;;;;5072832;28;20040;-75
2021/09/19 06:54:13;;;;;;;8.43;5.30;;;;;;;;;;5070719;28;20150;-75
2021/09/19 06:56:39;;;;;;;10.07;5.80;;;;;;;;;;5088583;28;20059;-75
2021/09/19 06:59:05;;;;;;;8.82;5.68;;;;;;;;;;5071250;28;20083;-75
2021/09/19 07:01:31;;;;;;;9.45;5.53;;;;;;;;;;5071099;28;20056;-75
2021/09/19 07:03:57;;;;;;;11.77;6.50;;;;;;;;;;5071900;28;20450;-75
2021/09/19 07:06:23;;;;;;;7.93;5.97;;;;;;;;;;5070682;28;20052;-75
2021/09/19 07:08:49;;;;;;;11.90;5.97;;;;;;;;;;5071146;28;20106;-75
2021/09/19 07:11:15;;;;;;;8.35;5.45;;;;;;;;;;5087574;28;20087;-75
2021/09/19 07:13:41;;;;;;;8.23;5.70;;;;;;;;;;5072464;28;20053;-74
2021/09/19 07:16:07;;;;;;;13.13;5.70;;;;;;;;;;5075103;28;20053;-74
2021/09/19 07:18:33;;;;;;;8.07;5.70;;;;;;;;;;5070735;28;20084;-74
2021/09/19 07:21:00;;;;;;;12.15;6.00;;;;;;;;;;5088223;28;20072;-74
2021/09/19 07:23:26;;;;;;;9.02;5.93;;;;;;;;;;5070163;28;20123;-75
2021/09/19 07:25:52;;;;;;;11.55;5.95;;;;;;;;;;5084713;28;20056;-75
2021/09/19 07:28:19;;;;;;;9.65;6.05;;;;;;;;;;5070405;28;20053;-75
2021/09/19 07:30:45;;;;;;;10.35;6.90;;;;;;;;;;5071267;28;20060;-74
2021/09/19 07:33:12;;;;;;;11.30;6.00;;;;;;;;;;5071116;28;20048;-75
2021/09/19 07:35:38;;;;;;;9.38;6.47;;;;;;;;;;5070605;28;20075;-75
2021/09/19 07:38:05;;;;;;;11.05;6.53;;;;;;;;;;5054290;28;20054;-74
2021/09/19 07:40:31;;;;;;;10.02;6.80;;;;;;;;;;5103517;27;20090;-74
2021/09/19 07:42:59;;;;;;;10.05;5.70;;;;;;;;;;5070830;28;20052;-75
2021/09/19 07:45:26;;;;;;;7.82;5.40;;;;;;;;;;5070532;28;20047;-75
2021/09/19 07:47:53;;;;;;;8.52;6.03;;;;;;;;;;5087343;28;20558;-75
2021/09/19 07:50:19;;;;;;;10.27;6.40;;;;;;;;;;5069738;28;20376;-75
2021/09/19 07:52:45;;;;;;;13.68;7.22;;;;;;;;;;5087425;28;20048;-74
2021/09/19 07:55:14;;;;;;;9.98;6.45;;;;;;;;;;5119225;27;20033;-74
2021/09/19 07:57:41;;;;;;;10.75;6.97;;;;;;;;;;5087309;28;20052;-75
2021/09/19 08:00:07;;;;;;;10.32;6.95;;;;;;;;;;5071036;28;20044;-74
2021/09/19 08:02:33;;;;;;;10.43;6.30;;;;;;;;;;5053299;28;20057;-73
2021/09/19 08:04:59;;;;;;;8.25;6.40;;;;;;;;;;5071366;28;20044;-74
2021/09/19 08:07:25;;;;;;;9.13;7.38;;;;;;;;;;5087216;28;20048;-75
2021/09/19 08:09:52;;;;;;;9.57;6.82;;;;;;;;;;5070691;28;20045;-75
2021/09/19 08:12:18;;;;;;;10.43;7.20;;;;;;;;;;5069970;28;20044;-75
2021/09/19 08:14:44;;;;;;;13.63;6.65;;;;;;;;;;5091191;28;20052;-75
2021/09/19 08:17:10;;;;;;;10.15;6.53;;;;;;;;;;5078284;28;20054;-75
2021/09/19 08:19:36;;;;;;;10.52;6.47;;;;;;;;;;5069395;28;20251;-75
2021/09/19 08:22:03;;;;;;;11.15;6.78;;;;;;;;;;5069041;28;20051;-75
2021/09/19 08:24:29;;;;;;;10.68;6.32;;;;;;;;;;5086636;28;20040;-75
2021/09/19 08:26:55;;;;;;;9.48;6.50;;;;;;;;;;5070038;28;20504;-74
2021/09/19 08:29:22;;;;;;;8.77;6.25;;;;;;;;;;5069729;28;20439;-75
2021/09/19 08:31:48;;;;;;;9.32;6.18;;;;;;;;;;5087049;28;20748;-75
2021/09/19 08:34:14;;;;;;;9.00;6.30;;;;;;;;;;5071419;28;20048;-75
2021/09/19 08:36:40;;;;;;;8.68;6.13;;;;;;;;;;5073313;28;20044;-74
2021/09/19 08:39:08;;;;;;;7.60;5.85;;;;;;;;;;5090788;28;20041;-74
2021/09/19 08:41:35;;;;;;;9.05;6.47;;;;;;;;;;5090240;28;20744;-74
2021/09/19 08:44:02;;;;;;;8.48;6.18;;;;;;;;;;5057699;28;20045;-74
2021/09/19 08:46:29;;;;;;;9.65;6.03;;;;;;;;;;5090065;28;20066;-74
2021/09/19 08:48:55;;;;;;;7.38;5.55;;;;;;;;;;5090612;28;20456;-74
2021/09/19 08:51:21;;;;;;;10.65;6.03;;;;;;;;;;5073844;28;20049;-75
2021/09/19 08:53:47;;;;;;;10.77;6.65;;;;;;;;;;5073883;28;20044;-75
2021/09/19 08:56:20;;;;;;;9.07;6.35;;;;;;;;;;5074035;28;20044;-75
2021/09/19 08:58:46;;;;;;;8.93;5.88;;;;;;;;;;5073961;28;20055;-75
2021/09/19 09:01:12;;;;;;;9.32;6.07;;;;;;;;;;5073974;28;20484;-75
2021/09/19 09:03:40;;;;;;;7.90;5.35;;;;;;;;;;5089702;28;20082;-74
2021/09/19 09:06:07;;;;;;;9.80;6.18;;;;;;;;;;5107457;27;20052;-74
2021/09/19 09:08:34;;;;;;;8.13;6.18;;;;;;;;;;5089760;28;20045;-75
2021/09/19 09:11:01;;;;;;;12.30;5.47;;;;;;;;;;5091034;28;20055;-75
2021/09/19 09:13:28;;;;;;;9.80;6.07;;;;;;;;;;5072759;28;20044;-74
2021/09/19 09:16:00;;;;;;;6.82;5.35;;;;;;;;;;5084537;28;20507;-74
2021/09/19 09:18:30;;;;;;;7.07;5.70;;;;;;;;;;5089434;28;20392;-75
2021/09/19 09:20:59;;;;;;;9.82;5.28;;;;;;;;;;5090266;28;20052;-74
2021/09/19 09:23:30;;;;;;;8.18;5.80;;;;;;;;;;5072586;28;20047;-75
2021/09/19 09:26:15;;;;;;;8.32;5.57;;;;;;;;;;5072797;28;20056;-73
2021/09/19 09:28:44;;;;;;;8.45;5.78;;;;;;;;;;5073116;28;20393;-74
2021/09/19 09:31:11;;;;;;;11.07;5.80;;;;;;;;;;5090201;28;20048;-74
2021/09/19 09:33:37;;;;;;;9.25;5.70;;;;;;;;;;5072724;28;20049;-75
2021/09/19 09:36:08;;;;;;;8.98;5.43;;;;;;;;;;5074302;28;20514;-74
2021/09/19 09:38:34;;;;;;;7.85;4.97;;;;;;;;;;5089360;28;20048;-75
2021/09/19 09:41:00;;;;;;;7.57;5.18;;;;;;;;;;5089773;28;20044;-74
2021/09/19 09:43:26;;;;;;;;;;;;;;;;;;5072822;28;20388;-74
2021/09/19 09:45:52;;;;;;;;;;;;;;;;;;5072965;28;19921;-74
2021/09/19 09:48:18;;;;;;;;;;;;;;;;;;5073729;28;20363;-75
2021/09/19 09:50:44;;;;;;;;;;;;;;;;;;5072906;28;20623;-74
2021/09/19 09:53:11;;;;;;;10.45;5.53;;;;;;;;;;5072929;28;20280;-74
2021/09/19 09:55:42;;;;;;;5.90;4.68;;;;;;;;;;5105660;28;20040;-74
2021/09/19 09:58:08;;;;;;;10.18;5.28;;;;;;;;;;5089796;28;20480;-74
2021/09/19 10:00:35;;;;;;;9.82;5.70;;;;;;;;;;5088584;28;20395;-74
2021/09/19 10:03:01;;;;;;;9.27;5.07;;;;;;;;;;5072401;28;20505;-74
2021/09/19 10:05:28;;;;;;;7.78;5.40;;;;;;;;;;5071695;28;20114;-75
2021/09/19 10:07:55;;;;;;;8.23;5.85;;;;;;;;;;5088987;28;20047;-75
2021/09/19 10:10:22;;;;;;;8.90;5.90;;;;;;;;;;5106200;28;20052;-75
2021/09/19 10:12:49;;;;;;;9.48;5.28;;;;;;;;;;5072103;28;20349;-74
2021/09/19 10:15:16;;;;;;;7.72;4.95;;;;;;;;;;5080464;28;20082;-75
2021/09/19 10:17:45;;;;;;;;;;;;;;;;;;5082503;28;20048;-74
2021/09/19 10:20:12;;;;;;;;;;;;;;;;;;5072457;28;19920;-73
2021/09/19 10:22:38;;;;;;;;;;;;;;;;;;5106051;27;20355;-74
2021/09/19 10:25:04;;;;;;;;;;;;;;;;;;5072618;28;20012;-74
2021/09/19 10:27:30;;;;;;;;;;;;;;;;;;5070974;28;19941;-73
2021/09/19 10:29:56;;;;;;;;;;;;;;;;;;5072376;28;19920;-74
2021/09/19 10:32:22;;;;;;;;;;;;;;;;;;5106871;27;19928;-74
2021/09/19 10:34:48;;;;;;;;;;;;;;;;;;5071218;28;19928;-75
2021/09/19 10:37:14;;;;;;;;;;;;;;;;;;5072673;28;20015;-75
2021/09/19 10:39:41;;;;;;;;;;;;;;;;;;5087410;28;19920;-75
2021/09/19 10:42:09;;;;;;;;;;;;;;;;;;5105894;28;19924;-75
2021/09/19 10:44:35;;;;;;;;;;;;;;;;;;5123678;27;19971;-75
2021/09/19 10:47:00;;;;;;;;;;;;;;;;;;5074536;28;19982;-75
2021/09/19 10:49:26;;;;;;;;;;;;;;;;;;5084682;28;19920;-74
2021/09/19 10:51:52;;;;;;;;;;;;;;;;;;5071623;28;19921;-74
2021/09/19 10:54:18;;;;;;;;;;;;;;;;;;5071852;28;19924;-74
2021/09/19 10:56:44;;;;;;;;;;;;;;;;;;5071576;28;19921;-75
2021/09/19 10:59:10;;;;;;;;;;;;;;;;;;5071426;28;19924;-74
2021/09/19 11:01:37;;;;;;;;;;;;;;;;;;5071343;28;20038;-74
2021/09/19 11:04:03;;;;;;;;;;;;;;;;;;5105883;27;19959;-74
2021/09/19 11:06:29;;;;;;;;;;;;;;;;;;5105812;27;20375;-74
2021/09/19 11:08:56;;;;;;;;;;;;;;;;;;5087270;28;19920;-75
2021/09/19 11:11:22;;;;;;;;;;;;;;;;;;5087751;28;19921;-74
2021/09/19 11:13:53;;;;;;;;;;;;;;;;;;5104769;27;19924;-74
2021/09/19 11:16:19;;;;;;;;;;;;;;;;;;5112910;27;19924;-75
2021/09/19 11:18:45;;;;;;;;;;;;;;;;;;5070842;28;19935;-74
2021/09/19 11:21:11;;;;;;;;;;;;;;;;;;5080038;28;19920;-74
2021/09/19 11:23:38;;;;;;;;;;;;;;;;;;5071344;28;20011;-74
2021/09/19 11:26:04;;;;;;;;;;;;;;;;;;5104677;28;19920;-75
2021/09/19 11:28:30;;;;;;;;;;;;;;;;;;5072040;28;20050;-73
2021/09/19 11:30:56;;;;;;;;;;;;;;;;;;5071024;28;20378;-74
2021/09/19 11:33:22;;;;;;;;;;;;;;;;;;5071131;28;19921;-74
2021/09/19 11:35:48;;;;;;;;;;;;;;;;;;5070555;28;19924;-74
2021/09/19 11:38:14;;;;;;;;;;;;;;;;;;5071658;28;19928;-75
2021/09/19 11:40:40;;;;;;;;;;;;;;;;;;5070631;28;19947;-74
2021/09/19 11:43:06;;;;;;;;;;;;;;;;;;5071550;28;20405;-74
2021/09/19 11:45:33;;;;;;;;;;;;;;;;;;5071164;28;20284;-74
2021/09/19 11:47:59;;;;;;;;;;;;;;;;;;5105325;27;19947;-75
2021/09/19 11:50:25;;;;;;;;;;;;;;;;;;5071388;28;20367;-74
2021/09/19 11:52:51;;;;;;;;;;;;;;;;;;5070882;28;20363;-74
2021/09/19 11:55:17;;;;;;;;;;;;;;;;;;5071063;28;20380;-75
2021/09/19 11:57:43;;;;;;;;;;;;;;;;;;5070966;28;19947;-75
2021/09/19 12:00:09;;;;;;;;;;;;;;;;;;5071383;28;19924;-75
2021/09/19 12:02:36;;;;;;;;;;;;;;;;;;5070455;28;19999;-75
2021/09/19 12:05:02;;;;;;;;;;;;;;;;;;5105094;28;20034;-74
2021/09/19 12:07:28;;;;;;;;;;;;;;;;;;5071403;28;20031;-74
2021/09/19 12:09:54;;;;;;;;;;;;;;;;;;5071454;28;19920;-75
2021/09/19 12:12:20;;;;;;;;;;;;;;;;;;5075175;28;19924;-74
2021/09/19 12:14:46;;;;;;;;;;;;;;;;;;5077038;28;19920;-74
2021/09/19 12:17:12;;;;;;;;;;;;;;;;;;5082965;28;19920;-73
2021/09/19 12:19:38;;;;;;;;;;;;;;;;;;5074283;28;20331;-74
2021/09/19 12:22:04;;;;;;;;;;;;;;;;;;5074949;28;19928;-75
2021/09/19 12:24:30;;;;;;;;;;;;;;;;;;5091899;28;20322;-73
2021/09/19 12:26:56;;;;;;;;;;;;;;;;;;5073419;28;19920;-74
2021/09/19 12:29:22;;;;;;;;;;;;;;;;;;5074595;28;19920;-73
2021/09/19 12:31:48;;;;;;;;;;;;;;;;;;5074523;28;19978;-74
2021/09/19 12:34:14;;;;;;;;;;;;;;;;;;5074087;28;19927;-74
2021/09/19 12:36:40;;;;;;;;;;;;;;;;;;5074614;28;20420;-75
2021/09/19 12:39:06;;;;;;;;;;;;;;;;;;5074725;28;19920;-74
2021/09/19 12:41:32;;;;;;;;;;;;;;;;;;5074156;28;19943;-74
2021/09/19 12:43:58;;;;;;;;;;;;;;;;;;5073661;28;20118;-74
2021/09/19 12:46:24;;;;;;;;;;;;;;;;;;5087756;28;20361;-74
2021/09/19 12:48:50;;;;;;;;;;;;;;;;;;5073930;28;19920;-74
2021/09/19 12:51:16;;;;;;;;;;;;;;;;;;5074259;28;19920;-75
2021/09/19 12:53:44;;;;;;;;;;;;;;;;;;5073783;28;19928;-75
2021/09/19 12:56:10;;;;;;;;;;;;;;;;;;5091286;28;19978;-75
2021/09/19 12:58:36;;;;;;;;;;;;;;;;;;5074127;28;20372;-75
2021/09/19 13:01:02;;;;;;;;;;;;;;;;;;5073467;28;20343;-74
2021/09/19 13:03:28;;;;;;;;;;;;;;;;;;5074084;28;19924;-75
2021/09/19 13:05:56;;;;;;;;;;;;;;;;;;5074394;28;19928;-75
2021/09/19 13:08:22;;;;;;;;;;;;;;;;;;5073667;28;19955;-74
2021/09/19 13:10:48;;;;;;;;;;;;;;;;;;5074037;28;20013;-75
2021/09/19 13:13:16;;;;;;;;;;;;;;;;;;5073996;28;19974;-74
2021/09/19 13:15:42;;;;;;;;;;;;;;;;;;5109345;27;20409;-74
2021/09/19 13:18:08;;;;;;;;;;;;;;;;;;5073446;28;19924;-74
2021/09/19 13:20:34;;;;;;;;;;;;;;;;;;5073723;28;19920;-75
2021/09/19 13:23:00;;;;;;;;;;;;;;;;;;5073541;28;19920;-74
2021/09/19 13:25:26;;;;;;;;;;;;;;;;;;5074772;28;20416;-74
2021/09/19 13:27:52;;;;;;;;;;;;;;;;;;5073637;28;19927;-74
2021/09/19 13:30:18;;;;;;;;;;;;;;;;;;5073493;28;20015;-75
2021/09/19 13:32:44;;;;;;;;;;;;;;;;;;5093403;28;19965;-74
2021/09/19 13:35:10;;;;;;;;;;;;;;;;;;5073512;28;19921;-74
2021/09/19 13:37:36;;;;;;;;;;;;;;;;;;5107299;27;20291;-75
2021/09/19 13:40:02;;;;;;;;;;;;;;;;;;5073237;28;19985;-75
2021/09/19 13:42:28;;;;;;;;;;;;;;;;;;5073353;28;19924;-74
2021/09/19 13:44:55;;;;;;;;;;;;;;;;;;5117807;27;20379;-74
2021/09/19 13:47:21;;;;;;;;;;;;;;;;;;5102731;28;19920;-74
2021/09/19 13:49:48;;;;;;;;;;;;;;;;;;5072556;28;19920;-74
2021/09/19 13:52:14;;;;;;;;;;;;;;;;;;5107444;27;19927;-74
2021/09/19 13:54:40;;;;;;;;;;;;;;;;;;5073062;28;19964;-74
2021/09/19 13:57:06;;;;;;;;;;;;;;;;;;5072412;28;19956;-75
2021/09/19 13:59:32;;;;;;;;;;;;;;;;;;5107440;27;19920;-74
2021/09/19 14:01:57;;;;;;;;;;;;;;;;;;5082911;28;19920;-75
2021/09/19 14:04:24;;;;;;;;;;;;;;;;;;5078436;28;19977;-74
2021/09/19 14:06:50;;;;;;;;;;;;;;;;;;5106414;27;19927;-74
2021/09/19 14:09:16;;;;;;;;;;;;;;;;;;5074511;28;19920;-74
2021/09/19 14:11:42;;;;;;;;;;;;;;;;;;5072985;28;19955;-74
2021/09/19 14:14:08;;;;;;;;;;;;;;;;;;5072296;28;19924;-74
2021/09/19 14:16:34;;;;;;;;;;;;;;;;;;5078577;28;19921;-74
2021/09/19 14:19:00;;;;;;;;;;;;;;;;;;5072400;28;19967;-75
2021/09/19 14:21:25;;;;;;;;;;;;;;;;;;5072914;28;20046;-74
2021/09/19 14:23:51;;;;;;;;;;;;;;;;;;5072276;28;19920;-73
2021/09/19 14:26:17;;;;;;;;;;;;;;;;;;5073294;28;20390;-75
2021/09/19 14:28:43;;;;;;;;;;;;;;;;;;5072663;28;20398;-75
2021/09/19 14:31:09;;;;;;;;;;;;;;;;;;5105859;28;20379;-74
2021/09/19 14:33:35;;;;;;;;;;;;;;;;;;5071533;28;20333;-75
2021/09/19 14:36:01;;;;;;;;;;;;;;;;;;5072415;28;19920;-74
2021/09/19 14:38:27;;;;;;;;;;;;;;;;;;5072244;28;19921;-74
2021/09/19 14:40:53;;;;;;;;;;;;;;;;;;5072006;28;19946;-74
2021/09/19 14:43:19;;;;;;;;;;;;;;;;;;5071790;28;19967;-75
2021/09/19 14:45:45;;;;;;;;;;;;;;;;;;5072608;28;19921;-75
2021/09/19 14:48:11;;;;;;;;;;;;;;;;;;5071335;28;19921;-74
2021/09/19 14:50:37;;;;;;;;;;;;;;;;;;5071993;28;19921;-74
2021/09/19 14:53:03;;;;;;;;;;;;;;;;;;5071612;28;19931;-75
2021/09/19 14:55:28;;;;;;;;;;;;;;;;;;5088465;28;20387;-74
2021/09/19 14:57:54;;;;;;;;;;;;;;;;;;5089127;28;19924;-75
2021/09/19 15:00:21;;;;;;;3.60;2.65;;;;;;;;;;5074875;28;19927;-75
2021/09/19 15:02:47;;;;;;;6.72;3.40;;;;;;;;;;5071065;28;20052;-75
2021/09/19 15:05:13;;;;;;;5.93;3.42;;;;;;;;;;5070932;28;20052;-74
2021/09/19 15:07:39;;;;;;;5.13;3.42;;;;;;;;;;5071162;28;20048;-74
2021/09/19 15:10:06;;;;;;;5.18;3.33;;;;;;;;;;5071046;28;20051;-74
2021/09/19 15:12:32;;;;;;;4.22;3.17;;;;;;;;;;5087919;28;20509;-75